Main page
METAR-TAF:

METAR-TAF

Airports :

Brighton City Airport (Shoreham Airport)

Brighton, England

latitude: 50-50N, longitude: 000-17W, elevation: 2 m

Current weather observation

The report was made 24 minutes ago, at 11:20 UTC
Wind 6 kt from the South/Southwest
Temperature 7°C
Humidity 61%
Pressure 1025 hPa
Visibility 10 km or more
no clouds below 1500 m and no cumulonimbus

METAR: EGKA 081120Z 20006KT CAVOK 07/00 Q1025

Time: 11:44 (11:44 UTC)

Forecast

The report was made 47 minutes ago, at 10:57 UTC
Forecast valid from 08 at 12 UTC to 08 at 20 UTC
Wind 4 kt from the Southwest
Visibility 10 km or more
Few clouds at a height of 4500 ft

TAF: EGKA 081057Z 0812/0820 22004KT 9999 FEW045

Weather observations and forecasts of more than 4000 airports (METAR and TAF reports).

The available stations are represented by yellow and red dots on the map.

Hover mouse over dot to see the name of the station.

Then click to see weather observations and forecasts.

To change the map : click on the green buttons with a black cross to zoom in, on the green button with a dash to zoom out, or on the green arrows for adjacent maps.


METAR-TAF: